Time;durP1;ratioP1;P1;durP2;ratioP2;P2;SDS_P1;SDS_P2;PMS_P1;PMS_P2;Temp;Humidity;BMP_temperature;BMP_pressure;BME280_temperature;BME280_humidity;BME280_pressure;Samples;Min_cycle;Max_cycle;Signal;HPM_P1;HPM_P2
2021/01/01 00:00:28;;;;;;;27.58;11.75;;;;;;;17.86;73.33;101400.00;5051924;28;20033;-76
2021/01/01 00:02:54;;;;;;;46.53;12.90;;;;;;;17.87;72.96;101398.22;5051531;28;20071;-77
2021/01/01 00:05:19;;;;;;;31.52;11.93;;;;;;;17.84;73.63;101399.16;5052305;28;20429;-77
2021/01/01 00:07:45;;;;;;;31.90;11.57;;;;;;;17.83;73.10;101408.03;5052566;28;20056;-78
2021/01/01 00:10:10;;;;;;;27.17;11.25;;;;;;;17.82;73.77;101411.59;5052046;28;20063;-78
2021/01/01 00:12:36;;;;;;;34.40;10.98;;;;;;;17.82;73.33;101405.38;5051486;28;20048;-77
2021/01/01 00:15:01;;;;;;;22.48;11.27;;;;;;;17.82;73.45;101405.38;5051492;28;20047;-77
2021/01/01 00:17:27;;;;;;;24.45;11.10;;;;;;;17.81;73.13;101401.81;5052292;28;20405;-77
2021/01/01 00:19:52;;;;;;;30.48;11.15;;;;;;;17.80;73.79;101405.38;5050146;28;20132;-77
2021/01/01 00:22:18;;;;;;;28.83;11.48;;;;;;;17.82;73.23;101405.38;5051874;28;20056;-77
2021/01/01 00:24:43;;;;;;;25.63;10.55;;;;;;;17.81;73.31;101399.13;5051924;28;20123;-77
2021/01/01 00:27:09;;;;;;;33.05;11.45;;;;;;;17.82;73.10;101389.34;5051051;28;20083;-77
2021/01/01 00:29:34;;;;;;;28.40;11.02;;;;;;;17.80;73.45;101392.00;5051122;28;20045;-77
2021/01/01 00:32:00;;;;;;;25.02;11.65;;;;;;;17.81;73.73;101393.81;5052473;28;20051;-77
2021/01/01 00:34:25;;;;;;;29.60;11.45;;;;;;;17.81;73.54;101392.91;5052655;28;20041;-77
2021/01/01 00:36:51;;;;;;;30.35;11.90;;;;;;;17.79;73.37;101392.91;5050685;28;20055;-77
2021/01/01 00:39:16;;;;;;;24.42;10.10;;;;;;;17.78;73.62;101382.25;5051410;28;20067;-76
2021/01/01 00:41:42;;;;;;;28.00;11.70;;;;;;;17.78;73.35;101379.59;5050544;28;20052;-76
2021/01/01 00:44:07;;;;;;;24.13;11.02;;;;;;;17.81;73.42;101385.78;5050377;28;20052;-76
2021/01/01 00:46:33;;;;;;;26.55;11.20;;;;;;;17.79;73.58;101387.56;5051729;28;20155;-79
2021/01/01 00:48:58;;;;;;;23.42;10.90;;;;;;;17.79;73.47;101381.31;5050888;28;20052;-78
2021/01/01 00:51:24;;;;;;;27.02;11.45;;;;;;;17.80;74.29;101385.78;5051499;28;20044;-78
2021/01/01 00:53:50;;;;;;;22.67;11.45;;;;;;;17.79;73.49;101378.66;5050884;28;20064;-78
2021/01/01 00:56:15;;;;;;;26.02;10.52;;;;;;;17.81;73.51;101376.88;5052577;28;20036;-78
2021/01/01 00:58:40;;;;;;;24.98;11.40;;;;;;;17.77;74.05;101376.03;5051340;28;20037;-78
2021/01/01 01:01:06;;;;;;;21.75;10.45;;;;;;;17.79;73.95;101378.66;5050938;28;20497;-78
2021/01/01 01:03:32;;;;;;;22.88;11.32;;;;;;;17.79;74.25;101373.31;5051662;28;20033;-78
2021/01/01 01:05:57;;;;;;;20.90;10.57;;;;;;;17.79;73.81;101373.31;5050344;28;20040;-79
2021/01/01 01:08:22;;;;;;;18.40;11.07;;;;;;;17.77;73.78;101376.03;5050706;28;20033;-78
2021/01/01 01:10:48;;;;;;;19.08;10.90;;;;;;;17.77;74.23;101375.13;5050991;28;20119;-79
2021/01/01 01:13:13;;;;;;;27.25;11.13;;;;;;;17.81;73.69;101379.56;5051159;28;20037;-80
2021/01/01 01:15:39;;;;;;;21.42;11.23;;;;;;;17.81;73.40;101376.88;5051059;28;20124;-79
2021/01/01 01:18:04;;;;;;;19.45;10.52;;;;;;;17.80;73.82;101376.00;5050563;28;20524;-78
2021/01/01 01:20:30;;;;;;;17.90;10.52;;;;;;;17.79;73.92;101370.66;5051242;28;20045;-79
2021/01/01 01:22:55;;;;;;;19.40;10.85;;;;;;;17.79;73.99;101366.19;5050417;28;20041;-79
2021/01/01 01:25:21;;;;;;;15.50;9.98;;;;;;;17.77;74.00;101376.03;5052501;28;20029;-78
2021/01/01 01:27:46;;;;;;;21.50;10.40;;;;;;;17.77;73.53;101373.34;5050652;28;20041;-78
2021/01/01 01:30:12;;;;;;;18.63;10.23;;;;;;;17.77;74.07;101375.13;5051257;28;20488;-78
2021/01/01 01:32:38;;;;;;;16.58;9.85;;;;;;;17.80;73.62;101376.00;5050334;28;20502;-78
2021/01/01 01:35:03;;;;;;;21.60;10.00;;;;;;;17.78;73.91;101374.25;5050490;28;20029;-78
2021/01/01 01:37:29;;;;;;;20.23;10.02;;;;;;;17.77;73.40;101381.38;5050953;28;20090;-78
2021/01/01 01:39:54;;;;;;;16.83;10.00;;;;;;;17.76;73.85;101376.91;5049392;28;20041;-78
2021/01/01 01:42:20;;;;;;;21.10;10.27;;;;;;;17.84;73.41;101376.88;5051783;28;20453;-77
2021/01/01 01:44:45;;;;;;;15.20;9.98;;;;;;;17.83;73.12;101375.09;5050606;28;20060;-79
2021/01/01 01:47:11;;;;;;;22.42;9.43;;;;;;;17.80;73.75;101372.44;5050987;28;20048;-77
2021/01/01 01:49:36;;;;;;;18.05;10.05;;;;;;;17.79;73.94;101373.31;5050818;28;20052;-79
2021/01/01 01:52:02;;;;;;;27.08;10.70;;;;;;;17.77;73.34;101360.00;5049746;28;20137;-78
2021/01/01 01:54:28;;;;;;;18.92;10.23;;;;;;;17.76;74.19;101362.66;5051868;28;20033;-77
2021/01/01 01:56:54;;;;;;;15.90;9.27;;;;;;;17.75;74.25;101359.09;5050250;28;20049;-78
2021/01/01 01:59:21;;;;;;;16.83;9.60;;;;;;;17.76;73.50;101362.66;5050174;28;20433;-77
2021/01/01 02:01:46;;;;;;;14.52;9.57;;;;;;;17.75;74.02;101358.22;5050043;28;20493;-78
2021/01/01 02:04:12;;;;;;;19.20;10.07;;;;;;;17.73;74.04;101354.66;5050132;28;20040;-78
2021/01/01 02:06:37;;;;;;;19.23;9.18;;;;;;;17.74;74.44;101357.31;5050490;28;20382;-78
2021/01/01 02:09:03;;;;;;;20.77;9.57;;;;;;;17.75;73.77;101356.44;5049801;28;20037;-78
2021/01/01 02:11:28;;;;;;;13.65;8.57;;;;;;;17.77;74.00;101351.97;5050222;28;20041;-78
2021/01/01 02:13:54;;;;;;;24.80;9.45;;;;;;;17.80;73.57;101354.63;5049810;28;20060;-79
2021/01/01 02:16:19;;;;;;;14.63;9.30;;;;;;;17.79;74.33;101352.84;5053679;28;20098;-79
2021/01/01 02:18:45;;;;;;;15.10;9.20;;;;;;;17.81;74.25;101340.38;5054139;28;20037;-79
2021/01/01 02:21:10;;;;;;;15.55;8.93;;;;;;;17.80;73.53;101346.59;5054686;28;20053;-80
2021/01/01 02:23:36;;;;;;;12.20;8.43;;;;;;;17.80;73.67;101337.72;5054801;28;20033;-79
2021/01/01 02:26:01;;;;;;;18.58;9.90;;;;;;;17.83;73.60;101346.59;5053769;28;20045;-78
2021/01/01 02:28:27;;;;;;;15.68;9.07;;;;;;;17.81;74.08;101350.16;5054122;28;20033;-78
2021/01/01 02:30:52;;;;;;;18.27;9.00;;;;;;;17.78;74.23;101345.75;5053089;28;20071;-77
2021/01/01 02:33:18;;;;;;;17.17;9.35;;;;;;;17.80;73.93;101345.72;5054083;28;20041;-79
2021/01/01 02:35:43;;;;;;;14.50;9.02;;;;;;;17.78;74.20;101348.41;5053854;28;20124;-78
2021/01/01 02:38:09;;;;;;;17.85;9.23;;;;;;;17.83;73.63;101349.28;5053604;28;20057;-78
2021/01/01 02:40:34;;;;;;;18.38;9.23;;;;;;;17.81;73.85;101345.72;5053660;28;20390;-80
2021/01/01 02:43:00;;;;;;;21.83;8.95;;;;;;;17.79;73.89;101352.84;5053462;28;20281;-80
2021/01/01 02:45:27;;;;;;;23.25;9.30;;;;;;;17.81;74.06;101344.81;5054021;28;20421;-80
2021/01/01 02:47:52;;;;;;;16.02;8.80;;;;;;;17.80;73.69;101348.38;5053615;28;20041;-79
2021/01/01 02:50:18;;;;;;;14.45;8.43;;;;;;;17.79;74.23;101342.16;5055233;28;20037;-78
2021/01/01 02:52:43;;;;;;;16.90;9.23;;;;;;;17.82;74.20;101338.59;5053610;28;20033;-78
2021/01/01 02:55:09;;;;;;;11.75;8.60;;;;;;;17.80;73.59;101338.59;5052813;28;20040;-78
2021/01/01 02:57:34;;;;;;;16.48;8.73;;;;;;;17.82;73.99;101351.94;5054644;28;20083;-78
2021/01/01 02:59:59;;;;;;;15.52;8.15;;;;;;;17.79;73.48;101338.59;5052875;28;20057;-82
2021/01/01 03:02:25;;;;;;;13.07;9.20;;;;;;;17.80;73.89;101335.94;5054316;28;20044;-83
2021/01/01 03:04:50;;;;;;;14.13;8.65;;;;;;;17.78;74.12;101353.75;5053801;28;20045;-82
2021/01/01 03:07:15;;;;;;;18.73;8.57;;;;;;;17.75;74.11;101355.53;5054612;28;20045;-82
2021/01/01 03:09:41;;;;;;;12.05;7.90;;;;;;;17.76;74.16;101355.53;5053528;28;20379;-82
2021/01/01 03:12:06;;;;;;;17.23;8.35;;;;;;;17.78;73.75;101358.22;5053856;28;20445;-79
2021/01/01 03:14:31;;;;;;;17.63;9.63;;;;;;;17.77;73.70;101356.44;5053403;28;20506;-80
2021/01/01 03:16:56;;;;;;;16.33;8.45;;;;;;;17.76;73.77;101355.53;5054291;28;20574;-80
2021/01/01 03:19:22;;;;;;;15.20;8.15;;;;;;;17.75;74.14;101355.53;5054715;28;20486;-80
2021/01/01 03:21:47;;;;;;;16.13;8.90;;;;;;;17.76;73.87;101360.00;5052862;28;20048;-78
2021/01/01 03:24:13;;;;;;;11.95;7.65;;;;;;;17.79;74.13;101363.53;5052849;28;20393;-78
2021/01/01 03:26:39;;;;;;;22.38;8.85;;;;;;;17.78;74.10;101360.88;5053134;28;20049;-78
2021/01/01 03:29:04;;;;;;;12.75;8.02;;;;;;;17.81;73.94;101364.41;5053186;28;20049;-78
2021/01/01 03:31:30;;;;;;;26.20;8.40;;;;;;;17.80;74.18;101369.75;5054582;28;20051;-79
2021/01/01 03:33:55;;;;;;;10.68;7.20;;;;;;;17.79;73.99;101378.66;5052352;28;20097;-79
2021/01/01 03:36:20;;;;;;;17.20;7.85;;;;;;;17.78;73.50;101380.47;5052738;28;20494;-78
2021/01/01 03:38:46;;;;;;;15.98;8.00;;;;;;;17.78;73.55;101376.91;5053188;28;20048;-78
2021/01/01 03:41:11;;;;;;;12.93;7.63;;;;;;;17.75;73.81;101369.78;5052314;28;20048;-78
2021/01/01 03:43:37;;;;;;;12.20;7.55;;;;;;;17.76;74.26;101368.00;5052011;28;20068;-78
2021/01/01 03:46:02;;;;;;;12.88;7.72;;;;;;;17.79;74.14;101381.31;5053178;28;20041;-78
2021/01/01 03:48:28;;;;;;;13.07;7.70;;;;;;;17.77;73.83;101385.81;5053834;28;20033;-78
2021/01/01 03:50:53;;;;;;;12.73;8.02;;;;;;;17.77;73.84;101389.38;5051875;28;20032;-78
2021/01/01 03:53:19;;;;;;;12.30;7.15;;;;;;;17.76;73.57;101384.03;5052106;28;20090;-78
2021/01/01 03:55:46;;;;;;;11.50;7.55;;;;;;;17.76;74.22;101384.03;5053717;28;20037;-78
2021/01/01 03:58:11;;;;;;;10.57;7.28;;;;;;;17.77;74.34;101385.81;5051675;28;20049;-78
2021/01/01 04:00:36;;;;;;;11.98;7.35;;;;;;;17.75;74.32;101382.25;5052318;28;20033;-78
2021/01/01 04:03:02;;;;;;;11.43;7.20;;;;;;;17.76;74.03;101389.38;5051946;28;20061;-78
2021/01/01 04:05:27;;;;;;;11.30;7.68;;;;;;;17.75;73.82;101388.47;5052023;28;20174;-78
2021/01/01 04:07:53;;;;;;;12.13;7.35;;;;;;;17.76;73.58;101384.03;5051861;28;20033;-78
2021/01/01 04:10:18;;;;;;;11.57;7.10;;;;;;;17.76;74.18;101379.59;5052203;28;20037;-78
2021/01/01 04:12:44;;;;;;;15.13;8.07;;;;;;;17.76;73.93;101384.03;5053023;28;20090;-78
2021/01/01 04:15:09;;;;;;;12.60;7.35;;;;;;;17.75;74.17;101385.81;5051762;28;20120;-78
2021/01/01 04:17:35;;;;;;;11.70;6.72;;;;;;;17.78;74.17;101390.25;5052436;28;20115;-79
2021/01/01 04:20:00;;;;;;;12.68;7.28;;;;;;;17.78;74.25;101393.81;5051983;28;20036;-79
2021/01/01 04:22:26;;;;;;;12.27;7.65;;;;;;;17.80;73.99;101388.44;5052319;28;20034;-79
2021/01/01 04:24:51;;;;;;;13.73;8.07;;;;;;;17.78;73.69;101398.28;5051762;28;20060;-78
2021/01/01 04:27:17;;;;;;;10.13;7.20;;;;;;;17.78;73.96;101406.28;5051873;28;20044;-79
2021/01/01 04:29:42;;;;;;;10.45;7.05;;;;;;;17.77;74.13;101401.84;5053319;28;20041;-80
2021/01/01 04:32:08;;;;;;;13.48;8.20;;;;;;;17.76;73.69;101403.63;5051913;28;20059;-78
2021/01/01 04:34:33;;;;;;;17.92;7.43;;;;;;;17.85;73.99;101403.56;5051958;28;20045;-80
2021/01/01 04:36:59;;;;;;;13.38;7.15;;;;;;;17.79;73.59;101408.94;5051354;28;20064;-79
2021/01/01 04:39:24;;;;;;;11.55;7.43;;;;;;;17.74;74.24;101404.50;5051441;28;20051;-80
2021/01/01 04:41:50;;;;;;;19.75;7.07;;;;;;;17.75;73.53;101403.63;5050968;28;20041;-79
2021/01/01 04:44:15;;;;;;;13.52;7.03;;;;;;;17.72;74.37;101398.31;5052248;28;20037;-80
2021/01/01 04:46:41;;;;;;;11.85;6.88;;;;;;;17.70;74.00;101402.75;5051821;28;20048;-79
2021/01/01 04:49:07;;;;;;;13.68;6.85;;;;;;;17.70;74.44;101402.75;5051667;28;20041;-79
2021/01/01 04:51:32;;;;;;;17.67;7.40;;;;;;;17.71;73.88;101407.19;5051858;28;20094;-80
2021/01/01 04:53:57;;;;;;;11.60;6.75;;;;;;;17.70;74.04;101405.41;5050897;28;20398;-81
2021/01/01 04:56:23;;;;;;;10.75;6.40;;;;;;;17.70;73.74;101413.44;5051953;28;20064;-86
2021/01/01 04:58:49;;;;;;;16.50;7.38;;;;;;;17.71;74.21;101413.44;5051252;28;20421;-85
2021/01/01 05:01:14;;;;;;;11.13;6.45;;;;;;;17.71;73.79;101408.09;5052862;28;20033;-86
2021/01/01 05:03:39;;;;;;;11.90;6.75;;;;;;;17.69;73.98;101408.97;5051405;28;20037;-81
2021/01/01 05:06:05;;;;;;;13.18;7.15;;;;;;;17.71;73.69;101417.88;5050918;28;20102;-80
2021/01/01 05:08:30;;;;;;;14.43;6.38;;;;;;;17.71;74.06;101415.22;5051075;28;20049;-80
2021/01/01 05:10:56;;;;;;;11.32;7.10;;;;;;;17.68;74.00;101416.09;5050810;28;20033;-80
2021/01/01 05:13:22;;;;;;;11.18;7.00;;;;;;;17.71;74.13;101413.44;5050941;28;20037;-80
2021/01/01 05:15:47;;;;;;;11.60;6.68;;;;;;;17.72;74.03;101422.34;5051515;28;20045;-78
2021/01/01 05:18:13;;;;;;;14.48;6.97;;;;;;;17.73;74.09;101422.31;5051169;28;20041;-81
2021/01/01 05:20:38;;;;;;;12.60;6.38;;;;;;;17.77;73.51;101424.09;5051103;28;20048;-80
2021/01/01 05:23:04;;;;;;;10.43;6.78;;;;;;;17.77;73.91;101429.44;5050115;28;20037;-83
2021/01/01 05:25:29;;;;;;;9.73;6.13;;;;;;;17.76;73.78;101427.66;5051175;28;20061;-81
2021/01/01 05:27:55;;;;;;;9.68;6.07;;;;;;;17.75;73.34;101427.66;5050623;28;20048;-80
2021/01/01 05:30:20;;;;;;;7.95;5.90;;;;;;;17.79;73.97;101432.09;5051145;28;20048;-80
2021/01/01 05:32:46;;;;;;;10.43;7.10;;;;;;;17.81;73.76;101435.66;5050542;28;20041;-80
2021/01/01 05:35:11;;;;;;;10.57;6.25;;;;;;;17.85;73.64;101440.97;5050464;28;20048;-78
2021/01/01 05:37:37;;;;;;;10.00;6.22;;;;;;;17.80;73.15;101439.19;5050001;28;20428;-80
2021/01/01 05:40:02;;;;;;;10.25;6.22;;;;;;;17.88;73.10;101440.97;5050590;28;20056;-82
2021/01/01 05:42:28;;;;;;;8.02;6.07;;;;;;;17.80;73.09;101445.44;5050579;28;20063;-77
2021/01/01 05:44:53;;;;;;;16.17;6.63;;;;;;;17.79;73.94;101443.66;5042172;28;20135;-77
2021/01/01 05:47:19;;;;;;;12.95;6.28;;;;;;;17.82;74.08;101442.78;5051632;28;20091;-77
2021/01/01 05:49:44;;;;;;;16.20;6.13;;;;;;;17.81;73.62;101444.56;5050334;28;20029;-77
2021/01/01 05:52:10;;;;;;;10.68;6.28;;;;;;;17.82;73.93;101448.13;5049548;28;20447;-76
2021/01/01 05:54:35;;;;;;;9.45;6.47;;;;;;;17.81;73.50;101451.66;5049930;28;20071;-77
2021/01/01 05:57:01;;;;;;;9.43;6.47;;;;;;;17.88;73.72;101456.09;5049900;28;20440;-80
2021/01/01 05:59:26;;;;;;;10.38;5.80;;;;;;;17.78;74.02;101468.63;5050194;28;20123;-79
2021/01/01 06:01:52;;;;;;;14.55;5.93;;;;;;;17.89;73.77;101468.56;5049645;28;20044;-80
2021/01/01 06:04:17;;;;;;;18.40;6.40;;;;;;;17.89;73.01;101466.78;5051578;28;20064;-83
2021/01/01 06:06:43;;;;;;;31.70;6.60;;;;;;;17.97;73.63;101472.13;5048198;28;20033;-81
2021/01/01 06:09:10;;;;;;;17.85;6.28;;;;;;;17.92;72.98;101473.88;5037734;28;20113;-78
2021/01/01 06:11:36;;;;;;;14.27;6.03;;;;;;;17.90;73.36;101484.59;5030410;28;20049;-77
2021/01/01 06:14:02;;;;;;;31.55;6.90;;;;;;;17.91;73.53;101485.50;5025736;28;20046;-78
2021/01/01 06:16:27;;;;;;;27.95;6.85;;;;;;;17.94;73.23;101482.78;5022626;28;20136;-78
2021/01/01 06:18:53;;;;;;;13.23;5.85;;;;;;;17.92;73.79;101487.25;5026513;28;20061;-77
2021/01/01 06:21:18;;;;;;;19.98;5.32;;;;;;;17.91;73.49;101486.38;5027532;28;20399;-78
2021/01/01 06:23:43;;;;;;;13.48;5.60;;;;;;;17.90;73.49;101491.72;5029051;28;20073;-78
2021/01/01 06:26:09;;;;;;;9.73;5.60;;;;;;;17.89;73.52;101492.63;5038139;28;20109;-78
2021/01/01 06:28:34;;;;;;;16.70;5.78;;;;;;;17.88;73.89;101498.84;5028987;28;20411;-78
2021/01/01 06:31:00;;;;;;;16.85;5.47;;;;;;;17.88;73.34;101496.19;5030125;28;20083;-80
2021/01/01 06:33:26;;;;;;;11.82;5.93;;;;;;;17.89;73.68;101501.53;5029271;28;20064;-79
2021/01/01 06:35:52;;;;;;;13.57;5.38;;;;;;;17.86;73.66;101492.59;5030381;28;20038;-79
2021/01/01 06:38:17;;;;;;;11.13;6.10;;;;;;;17.88;73.57;101498.84;5048849;28;20037;-79
2021/01/01 06:40:43;;;;;;;11.80;5.97;;;;;;;17.86;73.23;101495.28;5029998;28;20057;-78
2021/01/01 06:43:08;;;;;;;11.10;5.75;;;;;;;17.86;73.75;101503.28;5027541;28;20395;-79
2021/01/01 06:45:39;;;;;;;12.30;5.93;;;;;;;17.83;74.07;101495.31;5033091;28;20044;-80
2021/01/01 06:48:04;;;;;;;16.75;5.88;;;;;;;17.84;73.38;101500.66;5038860;28;20171;-79
2021/01/01 06:50:30;;;;;;;14.20;5.32;;;;;;;17.85;73.29;101507.75;5048784;28;20123;-79
2021/01/01 06:52:55;;;;;;;11.88;5.55;;;;;;;17.87;73.78;101502.41;5029976;28;20040;-79
2021/01/01 06:55:21;;;;;;;10.25;5.53;;;;;;;17.87;73.26;101505.06;5031020;28;20091;-78
2021/01/01 06:57:46;;;;;;;7.82;5.13;;;;;;;17.86;73.48;101511.31;5039429;28;20383;-79
2021/01/01 07:00:12;;;;;;;9.80;5.45;;;;;;;17.85;73.79;101507.75;5050620;28;20033;-77
2021/01/01 07:02:37;;;;;;;12.27;5.53;;;;;;;17.85;73.25;101505.06;5051633;28;20049;-76
2021/01/01 07:05:03;;;;;;;13.38;6.07;;;;;;;17.87;73.46;101500.63;5063555;28;20037;-80
2021/01/01 07:07:29;;;;;;;14.45;5.65;;;;;;;17.91;73.55;101498.84;5052253;28;20506;-86
2021/01/01 07:09:54;;;;;;;13.70;5.22;;;;;;;17.88;73.55;101501.53;5037862;28;20041;-83
2021/01/01 07:12:19;;;;;;;17.02;5.57;;;;;;;17.90;73.26;101505.09;5053686;28;20036;-79
2021/01/01 07:14:45;;;;;;;20.58;5.45;;;;;;;17.91;72.94;101497.06;5044931;28;20099;-81
2021/01/01 07:17:11;;;;;;;17.88;5.43;;;;;;;17.89;73.44;101508.66;5062293;28;20069;-79
2021/01/01 07:19:36;;;;;;;8.77;5.10;;;;;;;17.89;73.13;101514.88;5049927;28;20502;-80
2021/01/01 07:22:02;;;;;;;11.20;4.97;;;;;;;17.87;73.73;101513.09;5052490;28;20045;-81
2021/01/01 07:24:27;;;;;;;17.88;6.00;;;;;;;17.86;73.25;101511.31;5052978;28;20048;-83
2021/01/01 07:26:52;;;;;;;10.32;5.28;;;;;;;17.85;73.74;101510.41;5042706;28;20049;-83
2021/01/01 07:29:18;;;;;;;7.68;5.28;;;;;;;17.82;73.35;101512.22;5053030;28;20041;-84
2021/01/01 07:31:43;;;;;;;22.83;5.78;;;;;;;17.89;73.42;101511.31;5051415;28;20064;-83
2021/01/01 07:34:09;;;;;;;43.17;5.82;;;;;;;18.16;73.57;101515.69;5052421;28;20064;-82
2021/01/01 07:36:34;;;;;;;42.97;6.75;;;;;;;18.13;73.36;101521.03;5053777;28;20025;-84
2021/01/01 07:39:00;;;;;;;46.10;6.38;;;;;;;18.06;73.19;101530.84;5053395;28;20041;-88
2021/01/01 07:41:25;;;;;;;33.88;6.18;;;;;;;17.93;73.74;101526.44;5051803;28;20033;-87
2021/01/01 07:43:51;;;;;;;59.42;7.60;;;;;;;18.07;74.80;101546.00;5041632;28;20033;-78
2021/01/01 07:46:16;;;;;;;52.05;6.40;;;;;;;18.16;74.91;101545.09;5064836;28;20476;-83
2021/01/01 07:48:42;;;;;;;79.40;8.45;;;;;;;18.22;74.93;101543.28;5046831;28;20059;-77
2021/01/01 07:51:07;;;;;;;68.13;8.57;;;;;;;18.07;74.53;101546.00;5048168;28;20056;-75
2021/01/01 07:53:34;;;;;;;45.13;7.18;;;;;;;17.97;75.14;101559.41;5050597;28;20059;-75
2021/01/01 07:55:59;;;;;;;48.35;7.03;;;;;;;17.92;75.03;101559.38;5050642;28;20062;-76
2021/01/01 07:58:25;;;;;;;36.88;6.70;;;;;;;17.92;74.81;101562.06;5052427;28;20513;-77
2021/01/01 08:00:50;;;;;;;45.35;7.32;;;;;;;17.92;74.63;101562.94;5050606;28;20033;-76
2021/01/01 08:03:15;;;;;;;23.23;5.50;;;;;;;17.94;73.88;101560.28;5051875;28;20115;-75
2021/01/01 08:05:41;;;;;;;27.50;5.43;;;;;;;17.92;73.64;101560.28;5050382;28;20048;-77
2021/01/01 08:08:06;;;;;;;19.63;5.25;;;;;;;17.95;73.66;101570.06;5051880;28;20513;-75
2021/01/01 08:10:32;;;;;;;23.38;6.00;;;;;;;17.93;73.52;101569.19;5051788;28;20041;-75
2021/01/01 08:12:57;;;;;;;15.20;4.93;;;;;;;17.93;73.00;101564.72;5049402;28;20131;-77
2021/01/01 08:15:23;;;;;;;19.30;5.25;;;;;;;17.94;73.36;101570.97;5050814;28;20053;-74
2021/01/01 08:17:49;;;;;;;20.85;5.05;;;;;;;17.96;72.53;101565.63;5048555;28;20068;-74
2021/01/01 08:20:14;;;;;;;29.05;5.30;;;;;;;17.95;72.82;101567.41;5048997;28;20104;-74
2021/01/01 08:22:39;;;;;;;18.17;5.53;;;;;;;17.96;72.38;101576.31;5049481;28;20041;-77
2021/01/01 08:25:05;;;;;;;16.80;5.45;;;;;;;17.96;72.39;101573.66;5049388;28;20044;-74
2021/01/01 08:27:30;;;;;;;23.17;5.10;;;;;;;17.97;72.35;101564.75;5045289;28;20079;-88
2021/01/01 08:29:56;;;;;;;26.60;5.07;;;;;;;17.98;71.61;101572.75;5051484;28;20102;-84
2021/01/01 08:32:21;;;;;;;23.88;5.60;;;;;;;17.95;71.76;101574.53;5051325;28;20045;-82
2021/01/01 08:34:47;;;;;;;14.60;4.78;;;;;;;17.95;72.15;101564.72;5050977;28;20033;-79
2021/01/01 08:37:12;;;;;;;13.57;5.45;;;;;;;17.93;71.51;101567.41;5051563;28;20041;-79
2021/01/01 08:39:38;;;;;;;14.77;4.63;;;;;;;17.95;71.38;101567.41;5049866;28;20440;-84
2021/01/01 08:42:03;;;;;;;20.75;5.32;;;;;;;17.93;71.58;101561.16;5051472;28;20037;-80
2021/01/01 08:44:30;;;;;;;10.05;4.55;;;;;;;17.93;71.79;101555.81;5052408;28;20048;-88
2021/01/01 08:46:56;;;;;;;12.18;4.63;;;;;;;17.95;71.17;101561.16;5050988;28;20104;-86
2021/01/01 08:49:22;;;;;;;16.50;5.07;;;;;;;17.90;71.22;101542.50;5052410;28;20040;-84
2021/01/01 08:51:48;;;;;;;15.55;4.80;;;;;;;17.93;71.72;101550.47;5047905;28;20048;-84
2021/01/01 08:54:13;;;;;;;22.77;5.13;;;;;;;17.92;71.21;101546.03;5024729;28;20116;-88
2021/01/01 08:56:38;;;;;;;14.70;4.72;;;;;;;17.91;70.96;101547.84;5027738;28;20057;-76
2021/01/01 08:59:04;;;;;;;20.35;4.90;;;;;;;17.91;71.08;101541.59;5028683;28;20080;-76
2021/01/01 09:01:29;;;;;;;9.95;3.85;;;;;;;17.90;71.19;101531.81;5030917;28;20071;-76
2021/01/01 09:03:54;;;;;;;18.73;4.45;;;;;;;17.87;70.58;101532.69;5016970;28;20046;-77
2021/01/01 09:06:20;;;;;;;13.20;3.45;;;;;;;17.86;71.11;101532.69;5026733;28;20164;-76
2021/01/01 09:08:45;;;;;;;12.38;3.72;;;;;;;17.86;70.69;101536.25;5016782;28;20044;-76
2021/01/01 09:11:10;;;;;;;14.95;4.55;;;;;;;17.86;70.58;101530.91;5028213;28;20566;-75
2021/01/01 09:13:36;;;;;;;12.18;3.90;;;;;;;17.86;71.22;101522.88;5030648;28;20394;-75
2021/01/01 09:16:01;;;;;;;14.25;4.47;;;;;;;17.85;70.50;101515.75;5028993;28;20223;-75
2021/01/01 09:18:26;;;;;;;10.65;3.78;;;;;;;17.84;71.14;101516.69;5031352;28;20489;-80
2021/01/01 09:20:52;;;;;;;8.43;3.88;;;;;;;17.88;70.36;101512.19;5028205;28;20510;-78
2021/01/01 09:23:17;;;;;;;13.77;3.97;;;;;;;17.92;70.40;101512.19;5011601;28;20042;-78
2021/01/01 09:25:42;;;;;;;14.38;4.15;;;;;;;17.83;70.57;101512.22;5031714;28;20057;-79
2021/01/01 09:28:08;;;;;;;14.73;3.92;;;;;;;17.85;70.17;101506.88;5028848;28;20048;-79
2021/01/01 09:30:37;;;;;;;8.57;3.88;;;;;;;17.83;70.33;101503.31;5029987;28;20482;-78
2021/01/01 09:33:02;;;;;;;18.20;4.00;;;;;;;17.82;70.53;101498.88;5030370;28;20046;-80
2021/01/01 09:35:27;;;;;;;11.20;3.90;;;;;;;17.81;70.39;101484.63;5044962;28;20397;-79
2021/01/01 09:37:53;;;;;;;13.68;4.18;;;;;;;17.80;70.36;101487.28;5048719;28;20041;-78
2021/01/01 09:40:18;;;;;;;9.57;3.92;;;;;;;17.83;69.97;101479.28;5049766;28;20071;-80
2021/01/01 09:42:43;;;;;;;15.35;3.95;;;;;;;17.81;70.52;101476.59;5049893;28;20045;-78
2021/01/01 09:45:09;;;;;;;13.13;3.50;;;;;;;17.83;69.70;101476.59;5048903;28;20045;-77
2021/01/01 09:47:34;;;;;;;10.77;3.80;;;;;;;17.81;69.84;101476.59;5049270;28;20037;-78
2021/01/01 09:49:59;;;;;;;11.90;3.95;;;;;;;17.80;69.93;101468.59;5047828;28;20119;-76
2021/01/01 09:52:25;;;;;;;15.98;4.05;;;;;;;17.81;70.68;101459.69;5036333;28;20083;-76
2021/01/01 09:54:50;;;;;;;14.55;4.13;;;;;;;17.79;70.09;101458.78;5043164;28;20073;-77
2021/01/01 09:57:15;;;;;;;8.27;3.72;;;;;;;17.81;70.51;101457.00;5040090;28;20080;-77
2021/01/01 09:59:41;;;;;;;11.57;3.97;;;;;;;17.81;70.50;101462.34;5030102;28;20072;-75
2021/01/01 10:02:06;;;;;;;7.43;3.05;;;;;;;17.81;70.50;101455.22;5029393;28;20559;-78
2021/01/01 10:04:31;;;;;;;14.13;3.50;;;;;;;17.83;70.02;101458.81;5037767;28;20131;-78
2021/01/01 10:06:57;;;;;;;13.20;3.78;;;;;;;17.81;70.60;101449.88;5049062;28;20116;-78
2021/01/01 10:09:22;;;;;;;10.02;3.47;;;;;;;17.84;70.55;101454.34;5047831;28;20037;-78
2021/01/01 10:11:47;;;;;;;13.52;3.50;;;;;;;17.81;70.23;101446.31;5048787;28;20497;-78
2021/01/01 10:14:13;;;;;;;9.88;3.58;;;;;;;17.83;70.18;101444.56;5049500;28;20095;-78
2021/01/01 10:16:39;;;;;;;14.75;4.60;;;;;;;17.82;70.16;101442.78;5049462;28;20049;-78
2021/01/01 10:19:04;;;;;;;9.55;3.58;;;;;;;17.82;70.33;101443.66;5046726;28;20037;-78
2021/01/01 10:21:30;;;;;;;10.02;3.90;;;;;;;17.82;70.53;101442.78;5030625;28;20099;-78
2021/01/01 10:23:55;;;;;;;8.93;3.42;;;;;;;17.83;70.10;101447.22;5041182;28;20041;-79
2021/01/01 10:26:20;;;;;;;6.00;3.17;;;;;;;17.83;70.72;101452.56;5031348;28;20124;-81
2021/01/01 10:28:45;;;;;;;12.55;3.95;;;;;;;17.85;70.38;101450.78;5040641;28;20038;-80
2021/01/01 10:31:11;;;;;;;14.35;3.95;;;;;;;17.83;70.67;101448.13;5039494;28;20045;-81
2021/01/01 10:33:36;;;;;;;15.23;3.35;;;;;;;17.83;70.63;101445.44;5030917;28;20084;-80
2021/01/01 10:36:01;;;;;;;14.40;4.53;;;;;;;17.85;70.50;101446.31;5031814;28;20060;-81
2021/01/01 10:38:27;;;;;;;20.52;4.28;;;;;;;17.86;70.63;101449.88;5038008;28;20442;-77
2021/01/01 10:40:52;;;;;;;19.20;3.78;;;;;;;17.89;70.02;101448.09;5047427;28;20051;-77
2021/01/01 10:43:17;;;;;;;20.75;4.25;;;;;;;17.87;70.47;101435.63;5052672;28;20060;-78
2021/01/01 10:45:43;;;;;;;30.10;4.50;;;;;;;17.87;70.17;101438.28;5036182;28;20045;-77
2021/01/01 10:48:08;;;;;;;17.73;4.45;;;;;;;17.86;70.59;101436.50;5048733;28;20041;-77
2021/01/01 10:50:34;;;;;;;17.13;3.80;;;;;;;17.84;70.17;101435.66;5052850;28;20072;-75
2021/01/01 10:52:59;;;;;;;25.02;4.47;;;;;;;17.86;70.63;101431.16;5045944;28;20064;-75
2021/01/01 10:55:24;;;;;;;15.20;3.90;;;;;;;17.85;70.35;101430.28;5044362;28;20038;-76
2021/01/01 10:57:50;;;;;;;19.15;3.95;;;;;;;17.86;70.70;101429.38;5049427;28;20041;-78
2021/01/01 11:00:15;;;;;;;22.92;4.75;;;;;;;17.86;70.69;101421.38;5045517;28;20087;-76
2021/01/01 11:02:41;;;;;;;13.00;3.83;;;;;;;17.86;70.33;101423.16;5036706;28;20094;-73
2021/01/01 11:05:06;;;;;;;12.88;3.83;;;;;;;17.87;70.20;101427.59;5050849;28;20044;-75
2021/01/01 11:07:31;;;;;;;19.27;4.13;;;;;;;17.88;70.72;101432.06;5050784;28;20066;-82